createdAt,value
2017-10-06T00:01:10.502Z,14.65
2017-10-06T00:03:40.023Z,9.80
2017-10-06T00:06:10.176Z,14.80
2017-10-06T00:08:39.258Z,12.43
2017-10-06T00:11:08.814Z,10.45
2017-10-06T00:13:38.298Z,10.60
2017-10-06T00:16:07.428Z,8.70
2017-10-06T00:18:37.256Z,6.32
2017-10-06T00:21:07.020Z,5.07
2017-10-06T00:23:36.530Z,9.77
2017-10-06T00:26:05.895Z,18.02
2017-10-06T00:28:35.190Z,11.70
2017-10-06T00:31:05.017Z,11.15
2017-10-06T00:33:34.125Z,10.93
2017-10-06T00:36:03.183Z,9.15
2017-10-06T00:38:32.662Z,13.50
2017-10-06T00:41:02.862Z,11.40
2017-10-06T00:43:31.954Z,10.27
2017-10-06T00:46:01.817Z,12.30
2017-10-06T00:48:31.575Z,12.13
2017-10-06T00:51:01.878Z,16.75
2017-10-06T00:53:31.104Z,12.82
2017-10-06T00:56:00.334Z,7.80
2017-10-06T00:58:29.268Z,12.30
2017-10-06T01:00:58.876Z,10.52
2017-10-06T01:03:27.716Z,6.10
2017-10-06T01:05:57.596Z,11.23
2017-10-06T01:08:26.605Z,13.40
2017-10-06T01:10:58.651Z,22.10
2017-10-06T01:13:30.100Z,12.37
2017-10-06T01:16:02.402Z,12.20
2017-10-06T01:18:35.031Z,13.32
2017-10-06T01:21:07.342Z,11.63
2017-10-06T01:23:39.069Z,16.48
2017-10-06T01:26:09.721Z,11.63
2017-10-06T01:28:39.803Z,9.87
2017-10-06T01:31:09.061Z,16.12
2017-10-06T01:33:38.682Z,14.23
2017-10-06T01:36:08.409Z,8.65
2017-10-06T01:38:37.453Z,9.98
2017-10-06T01:41:07.196Z,10.48
2017-10-06T01:43:36.241Z,14.30
2017-10-06T01:46:05.161Z,10.43
2017-10-06T01:48:34.122Z,15.30
2017-10-06T01:51:03.825Z,17.23
2017-10-06T01:53:33.345Z,12.70
2017-10-06T01:56:03.369Z,34.83
2017-10-06T01:58:32.250Z,14.57
2017-10-06T02:01:02.936Z,12.85
2017-10-06T02:03:31.792Z,15.60
2017-10-06T02:06:00.704Z,16.08
2017-10-06T02:08:29.732Z,10.47
2017-10-06T02:10:59.630Z,10.55
2017-10-06T02:13:29.209Z,8.75
2017-10-06T02:15:58.167Z,12.50
2017-10-06T02:18:27.762Z,11.73
2017-10-06T02:20:57.744Z,11.45
2017-10-06T02:23:26.666Z,14.10
2017-10-06T02:25:56.585Z,13.23
2017-10-06T02:28:26.448Z,12.32
2017-10-06T02:30:55.447Z,13.68
2017-10-06T02:33:24.868Z,9.87
2017-10-06T02:35:54.124Z,11.98
2017-10-06T02:38:23.176Z,10.50
2017-10-06T02:40:52.510Z,10.63
2017-10-06T02:43:22.078Z,18.10
2017-10-06T02:45:50.902Z,11.93
2017-10-06T02:48:19.793Z,10.77
2017-10-06T02:50:48.725Z,11.02
2017-10-06T02:53:17.827Z,12.80
2017-10-06T02:55:47.624Z,18.00
2017-10-06T02:58:17.076Z,14.73
2017-10-06T03:00:46.709Z,13.02
2017-10-06T03:03:16.125Z,13.10
2017-10-06T03:05:45.532Z,13.27
2017-10-06T03:08:14.840Z,13.45
2017-10-06T03:10:43.650Z,13.68
2017-10-06T03:13:12.820Z,7.17
2017-10-06T03:15:42.322Z,12.50
2017-10-06T03:18:11.665Z,14.27
2017-10-06T03:20:41.259Z,18.58
2017-10-06T03:23:10.225Z,16.80
2017-10-06T03:25:39.508Z,11.90
2017-10-06T03:28:08.696Z,9.05
2017-10-06T03:30:37.702Z,9.90
2017-10-06T03:33:07.218Z,9.53
2017-10-06T03:35:36.508Z,12.30
2017-10-06T03:38:06.161Z,20.27
2017-10-06T03:40:35.808Z,15.95
2017-10-06T03:43:04.746Z,8.55
2017-10-06T03:45:34.428Z,19.43
2017-10-06T03:48:04.452Z,21.23
2017-10-06T03:50:33.456Z,15.27
2017-10-06T03:53:03.252Z,12.90
2017-10-06T03:55:32.343Z,10.88
2017-10-06T03:58:01.194Z,19.00
2017-10-06T04:00:30.091Z,15.85
2017-10-06T04:02:58.880Z,13.27
2017-10-06T04:05:27.670Z,18.67
2017-10-06T04:07:56.486Z,17.50
2017-10-06T04:10:25.318Z,23.33
2017-10-06T04:12:54.196Z,12.93
2017-10-06T04:15:23.969Z,18.25
2017-10-06T04:17:53.354Z,11.12
2017-10-06T04:20:22.349Z,18.43
2017-10-06T04:22:51.422Z,12.60
2017-10-06T04:25:20.270Z,13.48
2017-10-06T04:27:50.302Z,16.10
2017-10-06T04:30:20.256Z,12.60
2017-10-06T04:32:50.139Z,18.67
2017-10-06T04:35:20.651Z,12.35
2017-10-06T04:37:50.713Z,15.85
2017-10-06T04:40:19.704Z,13.10
2017-10-06T04:42:48.580Z,8.70
2017-10-06T04:45:17.365Z,14.63
2017-10-06T04:47:46.350Z,16.35
2017-10-06T04:50:15.229Z,20.00
2017-10-06T04:52:44.082Z,13.15
2017-10-06T04:55:13.942Z,18.23
2017-10-06T04:57:42.820Z,11.85
2017-10-06T05:00:12.087Z,17.90
2017-10-06T05:02:41.998Z,16.30
2017-10-06T05:05:11.023Z,21.60
2017-10-06T05:07:40.037Z,20.27
2017-10-06T05:10:09.126Z,14.80
2017-10-06T05:12:38.542Z,25.35
2017-10-06T05:15:07.536Z,21.15
2017-10-06T05:17:36.570Z,19.60
2017-10-06T05:20:06.813Z,21.27
2017-10-06T05:22:35.625Z,17.80
2017-10-06T05:25:04.525Z,19.45
2017-10-06T05:27:33.413Z,15.82
2017-10-06T05:30:02.257Z,12.60
2017-10-06T05:32:32.197Z,17.45
2017-10-06T05:35:01.282Z,15.68
2017-10-06T05:37:30.318Z,22.57
2017-10-06T05:39:59.264Z,13.68
2017-10-06T05:42:28.420Z,19.92
2017-10-06T05:44:57.979Z,19.15
2017-10-06T05:47:27.028Z,19.95
2017-10-06T05:49:56.719Z,10.13
2017-10-06T05:52:26.176Z,11.10
2017-10-06T05:54:55.025Z,14.60
2017-10-06T05:57:24.815Z,18.52
2017-10-06T05:59:53.779Z,19.87
2017-10-06T06:02:31.582Z,17.53
2017-10-06T06:05:02.152Z,14.93
2017-10-06T06:07:31.912Z,15.83
2017-10-06T06:10:01.004Z,13.88
2017-10-06T06:12:30.340Z,17.42
2017-10-06T06:14:59.230Z,20.50
2017-10-06T06:17:28.044Z,28.50
2017-10-06T06:19:57.037Z,16.33
2017-10-06T06:22:26.017Z,19.05
2017-10-06T06:24:55.315Z,20.90
2017-10-06T06:27:24.238Z,17.60
2017-10-06T06:29:53.506Z,15.13
2017-10-06T06:32:22.676Z,26.67
2017-10-06T06:34:51.850Z,15.10
2017-10-06T06:37:20.893Z,19.83
2017-10-06T06:39:50.951Z,17.27
2017-10-06T06:42:20.280Z,12.85
2017-10-06T06:44:49.226Z,15.68
2017-10-06T06:47:18.074Z,11.67
2017-10-06T06:49:47.062Z,9.27
2017-10-06T06:52:16.055Z,17.95
2017-10-06T06:54:45.447Z,12.77
2017-10-06T06:57:14.326Z,12.77
2017-10-06T06:59:43.401Z,13.20
2017-10-06T07:02:12.585Z,15.63
2017-10-06T07:04:41.616Z,17.73
2017-10-06T07:07:11.092Z,21.40
2017-10-06T07:09:40.236Z,14.70
2017-10-06T07:12:09.336Z,13.82
2017-10-06T07:14:39.106Z,11.38
2017-10-06T07:17:08.236Z,14.15
2017-10-06T07:19:37.904Z,12.98
2017-10-06T07:22:06.764Z,12.07
2017-10-06T07:24:35.771Z,14.02
2017-10-06T07:27:04.714Z,11.45
2017-10-06T07:29:34.407Z,17.42
2017-10-06T07:32:03.213Z,16.27
2017-10-06T07:34:33.023Z,15.80
2017-10-06T07:37:03.201Z,7.78
2017-10-06T07:39:32.293Z,7.00
2017-10-06T07:42:01.396Z,7.03
2017-10-06T07:44:30.327Z,11.25
2017-10-06T07:47:00.072Z,20.43
2017-10-06T07:49:29.512Z,12.27
2017-10-06T07:51:58.332Z,12.57
2017-10-06T07:54:27.148Z,10.10
2017-10-06T07:56:55.991Z,16.08
2017-10-06T07:59:24.826Z,16.55
2017-10-06T08:01:54.042Z,11.07
2017-10-06T08:04:23.151Z,14.70
2017-10-06T08:06:52.157Z,16.48
2017-10-06T08:09:21.426Z,21.77
2017-10-06T08:11:50.566Z,16.12
2017-10-06T08:14:19.644Z,14.27
2017-10-06T08:16:48.827Z,14.02
2017-10-06T08:19:18.445Z,10.97
2017-10-06T08:21:47.541Z,13.55
2017-10-06T08:24:17.368Z,21.98
2017-10-06T08:26:47.302Z,9.90
2017-10-06T08:29:16.333Z,15.98
2017-10-06T08:31:45.888Z,8.98
2017-10-06T08:34:15.700Z,12.27
2017-10-06T08:36:44.750Z,10.65
2017-10-06T08:39:13.858Z,8.97
2017-10-06T08:41:43.635Z,12.93
2017-10-06T08:44:12.793Z,15.68
2017-10-06T08:46:42.737Z,14.63
2017-10-06T08:49:11.795Z,11.33
2017-10-06T08:51:41.649Z,13.80
2017-10-06T08:54:10.682Z,8.85
2017-10-06T08:56:39.537Z,20.10
2017-10-06T08:59:08.458Z,11.73
2017-10-06T09:01:37.898Z,17.52
2017-10-06T09:04:06.850Z,13.27
2017-10-06T09:06:36.676Z,11.98
2017-10-06T09:09:06.494Z,11.18
2017-10-06T09:11:36.346Z,11.70
2017-10-06T09:14:05.684Z,14.98
2017-10-06T09:16:34.825Z,13.57
2017-10-06T09:19:03.891Z,19.23
2017-10-06T09:21:33.713Z,13.98
2017-10-06T09:24:03.333Z,25.47
2017-10-06T09:26:32.193Z,9.20
2017-10-06T09:29:01.803Z,20.97
2017-10-06T09:31:31.809Z,11.85
2017-10-06T09:34:01.462Z,15.80
2017-10-06T09:36:30.333Z,10.90
2017-10-06T09:38:59.207Z,12.00
2017-10-06T09:41:29.020Z,7.95
2017-10-06T09:43:59.088Z,12.52
2017-10-06T09:46:28.253Z,13.20
2017-10-06T09:48:58.200Z,12.00
2017-10-06T09:51:27.324Z,12.43
2017-10-06T09:53:57.066Z,14.32
2017-10-06T09:56:29.056Z,9.63
2017-10-06T09:59:05.541Z,8.90
2017-10-06T10:01:39.292Z,12.20
2017-10-06T10:04:10.330Z,10.70
2017-10-06T10:06:40.514Z,7.37
2017-10-06T10:09:09.670Z,6.30
2017-10-06T10:11:42.415Z,14.13
2017-10-06T10:14:13.138Z,8.45
2017-10-06T10:16:48.361Z,10.23
2017-10-06T10:19:20.147Z,9.65
2017-10-06T10:24:27.743Z,19.30
2017-10-06T10:31:38.557Z,7.78
2017-10-06T10:34:09.974Z,4.47
2017-10-06T10:36:41.203Z,7.82
2017-10-06T10:39:10.110Z,12.67
2017-10-06T10:41:43.118Z,3.15
2017-10-06T10:44:12.362Z,9.15
2017-10-06T10:46:41.510Z,8.02
2017-10-06T10:49:10.555Z,7.07
2017-10-06T10:51:39.928Z,6.05
2017-10-06T10:54:12.076Z,5.00
2017-10-06T10:56:43.724Z,8.57
2017-10-06T10:59:24.770Z,4.80
2017-10-06T11:01:57.038Z,8.43
2017-10-06T11:04:27.354Z,8.35
2017-10-06T11:06:57.893Z,8.20
2017-10-06T11:09:27.198Z,8.18
2017-10-06T11:11:56.777Z,6.47
2017-10-06T11:14:30.645Z,9.00
2017-10-06T11:17:00.984Z,11.52
2017-10-06T11:19:31.523Z,14.32
2017-10-06T11:24:37.843Z,11.47
2017-10-06T11:27:09.950Z,12.23
2017-10-06T11:29:41.296Z,9.48
2017-10-06T11:32:12.933Z,14.75
2017-10-06T11:34:44.306Z,10.50
2017-10-06T11:37:13.372Z,8.57
2017-10-06T11:39:43.695Z,7.75
2017-10-06T11:42:12.853Z,10.70
2017-10-06T11:44:42.148Z,7.53
2017-10-06T11:47:11.314Z,7.25
2017-10-06T11:49:40.579Z,10.90
2017-10-06T11:52:09.857Z,9.10
2017-10-06T11:54:40.823Z,5.60
2017-10-06T11:57:11.146Z,8.23
2017-10-06T11:59:40.077Z,8.88
2017-10-06T12:02:09.027Z,7.00
2017-10-06T12:04:38.094Z,8.32
2017-10-06T12:07:07.383Z,12.05
2017-10-06T12:09:36.417Z,6.45
2017-10-06T12:12:05.375Z,7.25
2017-10-06T12:14:34.492Z,13.30
2017-10-06T12:17:04.514Z,10.63
2017-10-06T12:19:34.572Z,20.35
2017-10-06T12:22:04.176Z,8.13
2017-10-06T12:24:33.271Z,11.90
2017-10-06T12:27:02.330Z,7.63
2017-10-06T12:29:31.350Z,8.57
2017-10-06T12:32:00.661Z,7.25
2017-10-06T12:34:29.930Z,7.90
2017-10-06T12:36:59.565Z,7.00
2017-10-06T12:39:28.698Z,14.57
2017-10-06T12:41:58.125Z,11.85
2017-10-06T12:44:28.166Z,8.90
2017-10-06T12:46:57.338Z,14.25
2017-10-06T12:49:27.942Z,15.95
2017-10-06T12:52:03.898Z,9.37
2017-10-06T12:54:34.266Z,15.35
2017-10-06T12:57:03.618Z,18.87
2017-10-06T12:59:32.844Z,11.40
2017-10-06T13:02:03.057Z,18.77
2017-10-06T13:04:33.418Z,9.98
2017-10-06T13:07:03.009Z,15.82
2017-10-06T13:09:32.282Z,15.10
2017-10-06T13:12:02.067Z,8.70
2017-10-06T13:14:30.991Z,16.75
2017-10-06T13:17:00.077Z,14.80
2017-10-06T13:19:30.279Z,14.23
2017-10-06T13:21:59.280Z,11.52
2017-10-06T13:24:28.332Z,10.15
2017-10-06T13:26:57.626Z,8.50
2017-10-06T13:29:26.596Z,9.03
2017-10-06T13:31:55.910Z,10.63
2017-10-06T13:34:24.771Z,6.53
2017-10-06T13:36:53.696Z,7.45
2017-10-06T13:39:22.872Z,11.32
2017-10-06T13:41:51.932Z,11.12
2017-10-06T13:44:21.830Z,13.10
2017-10-06T13:46:50.905Z,6.97
2017-10-06T13:49:20.167Z,9.63
2017-10-06T13:51:49.083Z,10.00
2017-10-06T13:54:17.933Z,29.90
2017-10-06T13:56:46.873Z,68.03
2017-10-06T13:59:16.041Z,27.85
2017-10-06T14:01:48.118Z,18.40
2017-10-06T14:04:17.182Z,15.80
2017-10-06T14:06:46.144Z,15.45
2017-10-06T14:09:16.222Z,10.35
2017-10-06T14:11:45.224Z,16.00
2017-10-06T14:14:14.831Z,14.50
2017-10-06T14:16:43.869Z,15.05
2017-10-06T14:19:13.675Z,16.47
2017-10-06T14:21:44.012Z,11.75
2017-10-06T14:24:14.112Z,16.90
2017-10-06T14:26:47.256Z,8.13
2017-10-06T14:29:16.823Z,22.10
2017-10-06T14:31:47.654Z,30.20
2017-10-06T14:34:17.692Z,23.55
2017-10-06T14:36:46.713Z,26.42
2017-10-06T14:39:15.768Z,26.73
2017-10-06T14:41:45.308Z,36.40
2017-10-06T14:44:15.753Z,30.70
2017-10-06T14:46:44.705Z,42.28
2017-10-06T14:49:13.581Z,27.17
2017-10-06T14:51:42.472Z,31.67
2017-10-06T14:54:11.366Z,18.47
2017-10-06T14:56:41.007Z,21.30
2017-10-06T14:59:10.066Z,24.63
2017-10-06T15:01:39.444Z,9.82
2017-10-06T15:04:09.104Z,12.75
2017-10-06T15:06:38.114Z,18.40
2017-10-06T15:09:07.004Z,11.20
2017-10-06T15:11:36.016Z,18.95
2017-10-06T15:14:06.266Z,14.07
2017-10-06T15:16:35.134Z,10.65
2017-10-06T15:19:05.049Z,14.73
2017-10-06T15:21:34.726Z,10.60
2017-10-06T15:24:03.833Z,12.57
2017-10-06T15:26:34.102Z,9.97
2017-10-06T15:29:03.004Z,21.83
2017-10-06T15:31:32.232Z,51.97
2017-10-06T15:34:02.758Z,52.58
2017-10-06T15:36:32.277Z,16.90
2017-10-06T15:39:01.287Z,18.20
2017-10-06T15:41:30.157Z,28.02
2017-10-06T15:43:59.799Z,20.55
2017-10-06T15:46:28.724Z,23.40
2017-10-06T15:48:57.754Z,13.50
2017-10-06T15:51:27.447Z,15.57
2017-10-06T15:53:56.515Z,15.03
2017-10-06T15:56:26.235Z,17.63
2017-10-06T15:58:55.617Z,17.90
2017-10-06T16:01:33.495Z,15.70
2017-10-06T16:04:03.027Z,20.70
2017-10-06T16:06:33.269Z,13.40
2017-10-06T16:09:04.676Z,15.13
2017-10-06T16:11:34.040Z,28.77
2017-10-06T16:14:04.229Z,27.52
2017-10-06T16:16:34.326Z,12.20
2017-10-06T16:19:03.434Z,8.43
2017-10-06T16:21:32.550Z,10.18
2017-10-06T16:24:01.851Z,17.98
2017-10-06T16:26:31.500Z,12.57
2017-10-06T16:29:01.265Z,22.45
2017-10-06T16:31:30.212Z,11.80
2017-10-06T16:33:59.152Z,18.40
2017-10-06T16:36:28.161Z,9.15
2017-10-06T16:38:58.126Z,16.58
2017-10-06T16:41:27.080Z,14.87
2017-10-06T16:43:56.991Z,13.85
2017-10-06T16:46:26.540Z,9.63
2017-10-06T16:48:56.326Z,11.75
2017-10-06T16:51:25.583Z,12.23
2017-10-06T16:53:54.714Z,11.80
2017-10-06T16:56:23.825Z,19.75
2017-10-06T16:58:52.917Z,17.23
2017-10-06T17:01:22.060Z,17.58
2017-10-06T17:06:13.557Z,15.30
2017-10-06T17:08:42.466Z,15.70
2017-10-06T17:11:12.207Z,19.67
2017-10-06T17:13:41.864Z,16.05
2017-10-06T17:16:10.849Z,12.60
2017-10-06T17:18:39.923Z,11.88
2017-10-06T17:21:11.426Z,10.52
2017-10-06T17:23:40.325Z,11.02
2017-10-06T17:26:09.382Z,10.40
2017-10-06T17:28:38.830Z,12.87
2017-10-06T17:31:07.968Z,20.95
2017-10-06T17:33:37.170Z,17.87
2017-10-06T17:36:06.152Z,11.07
2017-10-06T17:38:35.147Z,13.15
2017-10-06T17:41:04.114Z,15.55
2017-10-06T17:43:33.741Z,13.03
2017-10-06T17:46:02.862Z,15.52
2017-10-06T17:48:31.735Z,25.23
2017-10-06T17:51:00.784Z,22.73
2017-10-06T17:53:30.707Z,16.77
2017-10-06T17:56:00.561Z,20.33
2017-10-06T17:58:29.557Z,19.73
2017-10-06T18:00:58.668Z,22.20
2017-10-06T18:03:27.891Z,16.40
2017-10-06T18:05:57.759Z,18.42
2017-10-06T18:08:26.826Z,21.87
2017-10-06T18:10:55.964Z,14.50
2017-10-06T18:13:26.462Z,25.30
2017-10-06T18:15:55.633Z,19.45
2017-10-06T18:18:25.374Z,21.00
2017-10-06T18:20:54.250Z,20.40
2017-10-06T18:23:23.333Z,17.98
2017-10-06T18:25:52.442Z,21.52
2017-10-06T18:28:21.397Z,31.40
2017-10-06T18:30:51.115Z,17.40
2017-10-06T18:33:22.190Z,17.55
2017-10-06T18:35:51.205Z,16.50
2017-10-06T18:38:20.036Z,19.00
2017-10-06T18:40:50.002Z,20.85
2017-10-06T18:43:18.915Z,22.98
2017-10-06T18:45:48.287Z,20.10
2017-10-06T18:48:17.378Z,37.47
2017-10-06T18:50:46.289Z,23.95
2017-10-06T18:53:15.230Z,18.30
2017-10-06T18:55:44.123Z,28.60
2017-10-06T18:58:13.465Z,18.35
2017-10-06T19:00:42.714Z,14.07
2017-10-06T19:03:12.105Z,19.67
2017-10-06T19:05:41.423Z,20.35
2017-10-06T19:08:10.512Z,23.80
2017-10-06T19:10:39.787Z,19.90
2017-10-06T19:13:10.662Z,24.52
2017-10-06T19:16:42.670Z,21.33
2017-10-06T19:19:12.867Z,28.92
2017-10-06T19:21:42.565Z,32.13
2017-10-06T19:24:11.925Z,19.77
2017-10-06T19:26:41.015Z,26.25
2017-10-06T19:29:11.012Z,23.77
2017-10-06T19:31:41.193Z,15.95
2017-10-06T19:34:11.610Z,20.50
2017-10-06T19:36:41.044Z,16.40
2017-10-06T19:39:11.297Z,16.73
2017-10-06T19:41:41.602Z,21.40
2017-10-06T19:44:12.236Z,20.67
2017-10-06T19:46:42.987Z,22.23
2017-10-06T19:49:12.938Z,25.27
2017-10-06T19:51:42.461Z,22.58
2017-10-06T19:54:13.666Z,18.10
2017-10-06T19:56:45.064Z,21.65
2017-10-06T19:59:14.599Z,20.60
2017-10-06T20:01:44.651Z,16.00
2017-10-06T20:04:14.818Z,17.70
2017-10-06T20:06:44.275Z,21.25
2017-10-06T20:09:13.584Z,20.80
2017-10-06T20:11:43.090Z,21.60
2017-10-06T20:14:13.071Z,19.60
2017-10-06T20:16:42.887Z,12.67
2017-10-06T20:19:12.172Z,21.30
2017-10-06T20:21:41.279Z,17.70
2017-10-06T20:24:11.219Z,21.12
2017-10-06T20:26:40.328Z,21.27
2017-10-06T20:29:09.541Z,22.90
2017-10-06T20:31:39.604Z,20.08
2017-10-06T20:34:09.406Z,18.73
2017-10-06T20:36:38.583Z,29.70
2017-10-06T20:39:08.793Z,26.53
2017-10-06T20:41:38.021Z,26.47
2017-10-06T20:44:07.108Z,17.30
2017-10-06T20:46:37.305Z,28.35
2017-10-06T20:49:06.320Z,20.20
2017-10-06T20:51:35.418Z,23.27
2017-10-06T20:54:04.320Z,23.40
2017-10-06T20:56:33.201Z,24.45
2017-10-06T20:59:02.554Z,31.42
2017-10-06T21:01:31.694Z,32.75
2017-10-06T21:04:01.385Z,23.45
2017-10-06T21:06:31.240Z,27.98
2017-10-06T21:09:00.308Z,19.77
2017-10-06T21:11:29.359Z,16.20
2017-10-06T21:13:58.289Z,28.17
2017-10-06T21:16:27.943Z,15.40
2017-10-06T21:18:56.875Z,23.53
2017-10-06T21:21:26.447Z,21.75
2017-10-06T21:23:55.695Z,16.13
2017-10-06T21:26:24.796Z,18.63
2017-10-06T21:28:54.678Z,21.30
2017-10-06T21:31:25.662Z,20.65
2017-10-06T21:33:54.864Z,24.63
2017-10-06T21:36:24.034Z,22.00
2017-10-06T21:38:53.882Z,20.58
2017-10-06T21:41:23.429Z,31.00
2017-10-06T21:43:53.277Z,24.30
2017-10-06T21:46:22.337Z,20.83
2017-10-06T21:48:51.753Z,21.90
2017-10-06T21:51:21.591Z,21.13
2017-10-06T21:53:50.610Z,27.02
2017-10-06T21:56:20.094Z,20.60
2017-10-06T21:58:49.316Z,26.40
2017-10-06T22:01:18.601Z,35.78
2017-10-06T22:03:47.531Z,22.60
2017-10-06T22:06:21.452Z,21.53
2017-10-06T22:08:52.892Z,24.65
2017-10-06T22:11:23.334Z,28.20
2017-10-06T22:13:52.340Z,21.10
2017-10-06T22:16:21.384Z,27.62
2017-10-06T22:18:51.011Z,24.30
2017-10-06T22:21:20.826Z,19.67
2017-10-06T22:23:50.566Z,19.37
2017-10-06T22:26:19.884Z,24.08
2017-10-06T22:28:50.532Z,22.87
2017-10-06T22:31:19.934Z,22.08
2017-10-06T22:33:49.659Z,18.42
2017-10-06T22:36:20.163Z,19.40
2017-10-06T22:38:49.842Z,24.03
2017-10-06T22:41:19.336Z,30.80
2017-10-06T22:43:49.325Z,29.33
2017-10-06T22:46:18.943Z,35.20
2017-10-06T22:48:48.501Z,23.45
2017-10-06T22:51:17.811Z,21.23
2017-10-06T22:53:46.693Z,20.67
2017-10-06T22:56:16.082Z,24.80
2017-10-06T22:58:44.920Z,31.33
2017-10-06T23:01:16.505Z,21.10
2017-10-06T23:03:47.444Z,27.17
2017-10-06T23:06:17.697Z,23.40
2017-10-06T23:08:47.945Z,21.30
2017-10-06T23:11:19.149Z,27.17
2017-10-06T23:13:48.547Z,30.98
2017-10-06T23:16:18.462Z,28.02
2017-10-06T23:18:47.990Z,20.53
2017-10-06T23:21:17.557Z,20.48
2017-10-06T23:23:46.570Z,39.67
2017-10-06T23:26:15.908Z,30.55
2017-10-06T23:28:45.549Z,32.92
2017-10-06T23:31:15.470Z,32.45
2017-10-06T23:33:45.468Z,31.80
2017-10-06T23:36:15.337Z,37.00
2017-10-06T23:38:44.425Z,27.73
2017-10-06T23:41:13.333Z,28.00
2017-10-06T23:43:42.468Z,37.27
2017-10-06T23:46:11.789Z,25.30
2017-10-06T23:48:41.026Z,32.53
2017-10-06T23:51:09.949Z,28.03
2017-10-06T23:53:38.838Z,30.88
2017-10-06T23:56:07.836Z,27.92
2017-10-06T23:58:36.701Z,27.00
